sensor_id;sensor_type;location;lat;lon;timestamp;P1;durP1;ratioP1;P2;durP2;ratioP2
1753;SDS011;58380;48.312;9.246;2022-10-17T06:27:13;12.38;;;5.32;;
1753;SDS011;58380;48.312;9.246;2022-10-17T06:29:39;14.23;;;7.43;;
1753;SDS011;58380;48.312;9.246;2022-10-17T06:32:04;12.43;;;6.73;;
1753;SDS011;58380;48.312;9.246;2022-10-17T06:34:31;16.58;;;5.45;;
1753;SDS011;58380;48.312;9.246;2022-10-17T06:36:56;10.40;;;3.60;;
1753;SDS011;58380;48.312;9.246;2022-10-17T06:39:22;8.40;;;3.00;;
1753;SDS011;58380;48.312;9.246;2022-10-17T06:41:48;6.00;;;2.80;;
1753;SDS011;58380;48.312;9.246;2022-10-17T06:44:14;5.67;;;2.50;;
1753;SDS011;58380;48.312;9.246;2022-10-17T06:46:40;6.47;;;1.90;;
1753;SDS011;58380;48.312;9.246;2022-10-17T06:49:05;7.05;;;1.88;;
1753;SDS011;58380;48.312;9.246;2022-10-17T06:51:34;5.75;;;2.60;;
1753;SDS011;58380;48.312;9.246;2022-10-17T06:54:01;11.43;;;5.00;;
1753;SDS011;58380;48.312;9.246;2022-10-17T06:56:28;14.48;;;6.70;;
1753;SDS011;58380;48.312;9.246;2022-10-17T06:58:54;20.45;;;7.47;;
1753;SDS011;58380;48.312;9.246;2022-10-17T07:01:19;11.33;;;5.60;;
1753;SDS011;58380;48.312;9.246;2022-10-17T07:03:46;9.97;;;5.40;;
1753;SDS011;58380;48.312;9.246;2022-10-17T07:06:13;15.55;;;7.57;;
1753;SDS011;58380;48.312;9.246;2022-10-17T07:08:43;20.23;;;9.00;;
1753;SDS011;58380;48.312;9.246;2022-10-17T07:11:14;19.70;;;9.80;;
1753;SDS011;58380;48.312;9.246;2022-10-17T07:13:42;12.75;;;5.15;;
1753;SDS011;58380;48.312;9.246;2022-10-17T07:16:09;19.98;;;6.55;;
1753;SDS011;58380;48.312;9.246;2022-10-17T07:18:36;23.38;;;9.55;;
1753;SDS011;58380;48.312;9.246;2022-10-17T07:21:04;18.65;;;9.25;;
1753;SDS011;58380;48.312;9.246;2022-10-17T07:26:03;16.65;;;8.40;;
1753;SDS011;58380;48.312;9.246;2022-10-17T07:28:36;15.40;;;8.25;;
1753;SDS011;58380;48.312;9.246;2022-10-17T07:31:07;13.75;;;8.27;;
1753;SDS011;58380;48.312;9.246;2022-10-17T07:33:36;20.15;;;8.57;;
1753;SDS011;58380;48.312;9.246;2022-10-17T07:36:02;21.27;;;7.65;;
1753;SDS011;58380;48.312;9.246;2022-10-17T07:38:29;13.98;;;7.63;;
1753;SDS011;58380;48.312;9.246;2022-10-17T07:40:56;12.85;;;7.72;;
1753;SDS011;58380;48.312;9.246;2022-10-17T07:43:24;21.35;;;7.60;;
1753;SDS011;58380;48.312;9.246;2022-10-17T07:45:50;14.75;;;7.25;;
1753;SDS011;58380;48.312;9.246;2022-10-17T07:48:17;13.75;;;6.70;;
1753;SDS011;58380;48.312;9.246;2022-10-17T07:50:43;16.92;;;7.68;;
1753;SDS011;58380;48.312;9.246;2022-10-17T07:53:09;15.00;;;6.47;;
1753;SDS011;58380;48.312;9.246;2022-10-17T07:55:37;12.67;;;6.37;;
1753;SDS011;58380;48.312;9.246;2022-10-17T07:58:05;14.20;;;6.10;;
1753;SDS011;58380;48.312;9.246;2022-10-17T08:00:31;13.20;;;6.18;;
1753;SDS011;58380;48.312;9.246;2022-10-17T08:02:57;16.73;;;7.35;;
1753;SDS011;58380;48.312;9.246;2022-10-17T08:05:22;16.50;;;7.32;;
1753;SDS011;58380;48.312;9.246;2022-10-17T08:07:48;16.20;;;6.73;;
1753;SDS011;58380;48.312;9.246;2022-10-17T08:10:14;11.20;;;6.30;;
1753;SDS011;58380;48.312;9.246;2022-10-17T08:12:40;17.38;;;5.88;;
1753;SDS011;58380;48.312;9.246;2022-10-17T08:15:07;18.63;;;5.72;;
1753;SDS011;58380;48.312;9.246;2022-10-17T08:17:34;9.93;;;4.28;;
1753;SDS011;58380;48.312;9.246;2022-10-17T08:20:02;7.35;;;4.57;;
1753;SDS011;58380;48.312;9.246;2022-10-17T08:22:29;6.78;;;4.40;;
1753;SDS011;58380;48.312;9.246;2022-10-17T08:24:55;10.85;;;5.03;;
1753;SDS011;58380;48.312;9.246;2022-10-17T08:27:21;15.27;;;4.73;;
1753;SDS011;58380;48.312;9.246;2022-10-17T08:29:49;6.50;;;3.50;;
1753;SDS011;58380;48.312;9.246;2022-10-17T08:32:19;8.13;;;3.95;;
1753;SDS011;58380;48.312;9.246;2022-10-17T08:34:47;4.22;;;2.88;;
1753;SDS011;58380;48.312;9.246;2022-10-17T08:37:13;8.23;;;3.13;;
1753;SDS011;58380;48.312;9.246;2022-10-17T08:48:29;9.20;;;2.78;;
1753;SDS011;58380;48.312;9.246;2022-10-17T08:53:48;4.20;;;1.90;;
1753;SDS011;58380;48.312;9.246;2022-10-17T08:56:48;5.95;;;1.80;;
1753;SDS011;58380;48.312;9.246;2022-10-17T08:59:19;3.22;;;1.83;;
1753;SDS011;58380;48.312;9.246;2022-10-17T09:13:41;5.15;;;1.90;;
1753;SDS011;58380;48.312;9.246;2022-10-17T09:19:31;5.22;;;1.92;;
1753;SDS011;58380;48.312;9.246;2022-10-17T09:22:16;6.40;;;2.15;;
1753;SDS011;58380;48.312;9.246;2022-10-17T09:24:51;5.32;;;1.85;;
1753;SDS011;58380;48.312;9.246;2022-10-17T09:27:37;3.83;;;2.08;;
1753;SDS011;58380;48.312;9.246;2022-10-17T09:30:14;3.80;;;2.05;;
1753;SDS011;58380;48.312;9.246;2022-10-17T09:32:46;3.03;;;1.60;;
1753;SDS011;58380;48.312;9.246;2022-10-17T09:35:15;3.40;;;1.88;;
1753;SDS011;58380;48.312;9.246;2022-10-17T09:37:42;4.32;;;1.95;;
1753;SDS011;58380;48.312;9.246;2022-10-17T09:40:11;2.42;;;1.58;;
1753;SDS011;58380;48.312;9.246;2022-10-17T09:42:50;2.60;;;1.60;;
1753;SDS011;58380;48.312;9.246;2022-10-17T09:45:19;5.75;;;1.58;;
1753;SDS011;58380;48.312;9.246;2022-10-17T09:50:48;8.10;;;2.15;;
1753;SDS011;58380;48.312;9.246;2022-10-17T09:53:29;3.47;;;2.00;;
1753;SDS011;58380;48.312;9.246;2022-10-17T09:56:06;4.15;;;1.73;;
1753;SDS011;58380;48.312;9.246;2022-10-17T10:03:48;6.32;;;1.80;;
1753;SDS011;58380;48.312;9.246;2022-10-17T10:06:32;3.95;;;1.70;;
1753;SDS011;58380;48.312;9.246;2022-10-17T10:08:58;3.45;;;1.80;;
1753;SDS011;58380;48.312;9.246;2022-10-17T10:11:25;2.15;;;1.65;;
1753;SDS011;58380;48.312;9.246;2022-10-17T10:14:31;3.00;;;1.30;;
1753;SDS011;58380;48.312;9.246;2022-10-17T10:17:01;4.00;;;1.67;;
1753;SDS011;58380;48.312;9.246;2022-10-17T10:19:49;3.33;;;1.65;;
1753;SDS011;58380;48.312;9.246;2022-10-17T10:22:17;3.25;;;1.48;;
1753;SDS011;58380;48.312;9.246;2022-10-17T10:24:45;2.97;;;1.42;;
1753;SDS011;58380;48.312;9.246;2022-10-17T10:27:31;4.85;;;1.70;;
1753;SDS011;58380;48.312;9.246;2022-10-17T10:29:57;3.63;;;1.73;;
1753;SDS011;58380;48.312;9.246;2022-10-17T10:32:30;2.40;;;1.65;;
1753;SDS011;58380;48.312;9.246;2022-10-17T10:37:54;2.88;;;1.67;;
1753;SDS011;58380;48.312;9.246;2022-10-17T10:40:31;2.13;;;1.20;;
1753;SDS011;58380;48.312;9.246;2022-10-17T10:43:03;3.80;;;1.30;;
1753;SDS011;58380;48.312;9.246;2022-10-17T10:56:21;4.28;;;1.58;;
1753;SDS011;58380;48.312;9.246;2022-10-17T10:59:00;3.20;;;1.10;;
1753;SDS011;58380;48.312;9.246;2022-10-17T11:06:46;2.42;;;1.45;;
1753;SDS011;58380;48.312;9.246;2022-10-17T11:09:23;4.70;;;1.40;;
1753;SDS011;58380;48.312;9.246;2022-10-17T11:11:57;3.05;;;1.65;;
1753;SDS011;58380;48.312;9.246;2022-10-17T11:14:50;3.25;;;1.65;;
1753;SDS011;58380;48.312;9.246;2022-10-17T11:17:29;3.33;;;1.80;;
1753;SDS011;58380;48.312;9.246;2022-10-17T11:23:14;4.80;;;1.65;;
1753;SDS011;58380;48.312;9.246;2022-10-17T11:25:46;3.92;;;1.50;;
1753;SDS011;58380;48.312;9.246;2022-10-17T11:28:19;4.13;;;1.48;;
1753;SDS011;58380;48.312;9.246;2022-10-17T11:30:59;4.38;;;1.85;;
1753;SDS011;58380;48.312;9.246;2022-10-17T11:33:43;6.45;;;1.80;;
1753;SDS011;58380;48.312;9.246;2022-10-17T11:36:13;7.85;;;1.50;;
1753;SDS011;58380;48.312;9.246;2022-10-17T11:38:48;2.70;;;1.35;;
1753;SDS011;58380;48.312;9.246;2022-10-17T11:43:52;4.07;;;1.52;;
1753;SDS011;58380;48.312;9.246;2022-10-17T11:46:27;5.15;;;1.60;;
1753;SDS011;58380;48.312;9.246;2022-10-17T11:51:30;3.90;;;1.40;;
1753;SDS011;58380;48.312;9.246;2022-10-17T11:54:38;8.07;;;2.00;;
1753;SDS011;58380;48.312;9.246;2022-10-17T12:00:28;4.30;;;1.50;;
1753;SDS011;58380;48.312;9.246;2022-10-17T12:09:40;6.47;;;1.42;;
1753;SDS011;58380;48.312;9.246;2022-10-17T12:12:25;7.45;;;1.50;;
1753;SDS011;58380;48.312;9.246;2022-10-17T12:18:02;3.72;;;1.20;;
1753;SDS011;58380;48.312;9.246;2022-10-17T12:23:03;5.57;;;1.25;;
1753;SDS011;58380;48.312;9.246;2022-10-17T12:25:36;4.38;;;1.50;;
1753;SDS011;58380;48.312;9.246;2022-10-17T12:33:58;2.35;;;1.50;;
1753;SDS011;58380;48.312;9.246;2022-10-17T12:46:49;5.45;;;1.33;;
1753;SDS011;58380;48.312;9.246;2022-10-17T12:52:25;2.45;;;0.98;;
1753;SDS011;58380;48.312;9.246;2022-10-17T12:55:23;3.50;;;1.17;;
1753;SDS011;58380;48.312;9.246;2022-10-17T12:57:58;5.75;;;1.00;;
1753;SDS011;58380;48.312;9.246;2022-10-17T13:03:23;7.38;;;1.58;;
1753;SDS011;58380;48.312;9.246;2022-10-17T13:05:58;5.68;;;1.10;;
1753;SDS011;58380;48.312;9.246;2022-10-17T13:08:29;2.88;;;1.10;;
1753;SDS011;58380;48.312;9.246;2022-10-17T13:10:59;3.80;;;1.25;;
1753;SDS011;58380;48.312;9.246;2022-10-17T13:19:10;3.38;;;1.23;;
1753;SDS011;58380;48.312;9.246;2022-10-17T13:25:04;6.88;;;1.73;;
1753;SDS011;58380;48.312;9.246;2022-10-17T13:27:42;4.63;;;1.77;;
1753;SDS011;58380;48.312;9.246;2022-10-17T13:30:27;2.92;;;1.15;;
1753;SDS011;58380;48.312;9.246;2022-10-17T13:32:57;4.15;;;1.42;;
1753;SDS011;58380;48.312;9.246;2022-10-17T13:35:27;2.28;;;1.20;;
1753;SDS011;58380;48.312;9.246;2022-10-17T13:37:59;11.45;;;1.60;;
1753;SDS011;58380;48.312;9.246;2022-10-17T13:40:28;4.20;;;1.20;;
1753;SDS011;58380;48.312;9.246;2022-10-17T13:43:02;2.70;;;1.13;;
1753;SDS011;58380;48.312;9.246;2022-10-17T13:45:33;4.45;;;1.20;;
1753;SDS011;58380;48.312;9.246;2022-10-17T13:48:03;3.47;;;0.93;;
1753;SDS011;58380;48.312;9.246;2022-10-17T13:50:40;3.75;;;1.20;;
1753;SDS011;58380;48.312;9.246;2022-10-17T13:56:15;5.10;;;1.42;;
1753;SDS011;58380;48.312;9.246;2022-10-17T13:58:47;2.75;;;1.23;;
1753;SDS011;58380;48.312;9.246;2022-10-17T14:01:15;4.28;;;1.00;;
1753;SDS011;58380;48.312;9.246;2022-10-17T14:03:44;6.45;;;1.10;;
1753;SDS011;58380;48.312;9.246;2022-10-17T14:06:16;5.20;;;1.23;;
1753;SDS011;58380;48.312;9.246;2022-10-17T14:11:34;4.53;;;0.82;;
1753;SDS011;58380;48.312;9.246;2022-10-17T14:14:23;4.03;;;0.98;;
1753;SDS011;58380;48.312;9.246;2022-10-17T14:16:50;2.28;;;0.75;;
1753;SDS011;58380;48.312;9.246;2022-10-17T14:21:51;1.98;;;0.75;;
1753;SDS011;58380;48.312;9.246;2022-10-17T14:24:38;2.72;;;0.68;;
1753;SDS011;58380;48.312;9.246;2022-10-17T14:27:29;2.47;;;0.60;;
1753;SDS011;58380;48.312;9.246;2022-10-17T14:30:27;2.75;;;0.77;;
1753;SDS011;58380;48.312;9.246;2022-10-17T14:32:50;1.88;;;1.35;;
1753;SDS011;58380;48.312;9.246;2022-10-17T14:35:22;5.85;;;0.70;;
1753;SDS011;58380;48.312;9.246;2022-10-17T14:37:49;10.85;;;0.98;;
1753;SDS011;58380;48.312;9.246;2022-10-17T14:40:19;5.07;;;0.90;;
1753;SDS011;58380;48.312;9.246;2022-10-17T14:42:47;5.82;;;0.80;;
1753;SDS011;58380;48.312;9.246;2022-10-17T14:45:21;3.22;;;0.68;;
1753;SDS011;58380;48.312;9.246;2022-10-17T14:47:54;2.00;;;0.57;;
1753;SDS011;58380;48.312;9.246;2022-10-17T14:50:27;4.35;;;0.90;;
1753;SDS011;58380;48.312;9.246;2022-10-17T14:55:37;6.85;;;0.82;;
1753;SDS011;58380;48.312;9.246;2022-10-17T14:58:21;3.80;;;0.60;;
1753;SDS011;58380;48.312;9.246;2022-10-17T15:00:51;2.75;;;0.68;;
1753;SDS011;58380;48.312;9.246;2022-10-17T15:03:17;3.30;;;0.52;;
1753;SDS011;58380;48.312;9.246;2022-10-17T15:08:16;7.22;;;0.90;;
1753;SDS011;58380;48.312;9.246;2022-10-17T15:10:44;7.70;;;0.63;;
1753;SDS011;58380;48.312;9.246;2022-10-17T15:13:12;3.85;;;0.82;;
1753;SDS011;58380;48.312;9.246;2022-10-17T15:15:38;9.93;;;0.82;;
1753;SDS011;58380;48.312;9.246;2022-10-17T15:18:05;6.10;;;1.08;;
1753;SDS011;58380;48.312;9.246;2022-10-17T15:20:34;5.45;;;1.00;;
1753;SDS011;58380;48.312;9.246;2022-10-17T15:25:26;7.85;;;1.10;;
1753;SDS011;58380;48.312;9.246;2022-10-17T15:27:54;4.30;;;0.95;;
1753;SDS011;58380;48.312;9.246;2022-10-17T15:30:23;3.25;;;0.88;;
1753;SDS011;58380;48.312;9.246;2022-10-17T15:32:56;5.63;;;0.88;;
1753;SDS011;58380;48.312;9.246;2022-10-17T15:35:22;3.72;;;0.93;;
1753;SDS011;58380;48.312;9.246;2022-10-17T15:37:49;6.38;;;1.02;;
1753;SDS011;58380;48.312;9.246;2022-10-17T15:40:17;4.80;;;0.95;;
1753;SDS011;58380;48.312;9.246;2022-10-17T15:42:53;3.42;;;0.93;;
1753;SDS011;58380;48.312;9.246;2022-10-17T15:45:20;4.43;;;1.00;;
1753;SDS011;58380;48.312;9.246;2022-10-17T15:47:51;3.67;;;0.90;;
1753;SDS011;58380;48.312;9.246;2022-10-17T15:50:21;3.22;;;0.80;;
1753;SDS011;58380;48.312;9.246;2022-10-17T15:52:47;3.75;;;1.00;;
1753;SDS011;58380;48.312;9.246;2022-10-17T15:55:17;2.08;;;0.90;;
1753;SDS011;58380;48.312;9.246;2022-10-17T15:57:44;3.05;;;0.82;;
1753;SDS011;58380;48.312;9.246;2022-10-17T16:00:17;4.75;;;1.10;;
1753;SDS011;58380;48.312;9.246;2022-10-17T16:02:46;7.88;;;1.27;;
1753;SDS011;58380;48.312;9.246;2022-10-17T16:05:17;4.65;;;1.05;;
1753;SDS011;58380;48.312;9.246;2022-10-17T16:07:47;5.00;;;1.08;;
1753;SDS011;58380;48.312;9.246;2022-10-17T16:10:13;2.55;;;0.85;;
1753;SDS011;58380;48.312;9.246;2022-10-17T16:12:40;3.33;;;0.90;;
1753;SDS011;58380;48.312;9.246;2022-10-17T16:15:13;5.55;;;1.00;;
1753;SDS011;58380;48.312;9.246;2022-10-17T16:17:42;7.25;;;1.10;;
1753;SDS011;58380;48.312;9.246;2022-10-17T16:20:08;4.28;;;1.38;;
1753;SDS011;58380;48.312;9.246;2022-10-17T16:22:36;5.70;;;1.15;;
1753;SDS011;58380;48.312;9.246;2022-10-17T16:25:07;4.32;;;1.00;;
1753;SDS011;58380;48.312;9.246;2022-10-17T16:27:46;2.30;;;0.90;;
1753;SDS011;58380;48.312;9.246;2022-10-17T16:30:14;7.25;;;1.33;;
1753;SDS011;58380;48.312;9.246;2022-10-17T16:32:41;3.13;;;1.00;;
1753;SDS011;58380;48.312;9.246;2022-10-17T16:35:06;6.82;;;1.40;;
1753;SDS011;58380;48.312;9.246;2022-10-17T16:37:33;4.25;;;1.33;;
1753;SDS011;58380;48.312;9.246;2022-10-17T16:39:59;3.25;;;1.38;;
1753;SDS011;58380;48.312;9.246;2022-10-17T16:44:51;2.60;;;1.13;;
1753;SDS011;58380;48.312;9.246;2022-10-17T16:47:16;5.63;;;1.42;;
1753;SDS011;58380;48.312;9.246;2022-10-17T16:49:43;4.65;;;1.33;;
1753;SDS011;58380;48.312;9.246;2022-10-17T16:52:08;4.47;;;1.83;;
1753;SDS011;58380;48.312;9.246;2022-10-17T16:57:00;12.60;;;1.55;;
1753;SDS011;58380;48.312;9.246;2022-10-17T16:59:26;7.10;;;1.30;;
1753;SDS011;58380;48.312;9.246;2022-10-17T17:01:52;5.47;;;1.25;;
1753;SDS011;58380;48.312;9.246;2022-10-17T17:04:17;5.32;;;1.25;;
1753;SDS011;58380;48.312;9.246;2022-10-17T17:06:43;5.30;;;1.20;;
1753;SDS011;58380;48.312;9.246;2022-10-17T17:09:08;4.00;;;1.25;;
1753;SDS011;58380;48.312;9.246;2022-10-17T17:11:34;5.90;;;1.35;;
1753;SDS011;58380;48.312;9.246;2022-10-17T17:14:01;7.32;;;1.80;;
1753;SDS011;58380;48.312;9.246;2022-10-17T17:16:29;7.20;;;1.35;;
1753;SDS011;58380;48.312;9.246;2022-10-17T17:18:57;6.35;;;2.08;;
1753;SDS011;58380;48.312;9.246;2022-10-17T17:21:33;11.10;;;2.75;;
1753;SDS011;58380;48.312;9.246;2022-10-17T17:24:00;6.00;;;1.42;;
1753;SDS011;58380;48.312;9.246;2022-10-17T17:26:27;8.43;;;1.38;;
1753;SDS011;58380;48.312;9.246;2022-10-17T17:28:56;8.38;;;1.35;;
1753;SDS011;58380;48.312;9.246;2022-10-17T17:31:24;6.72;;;1.10;;
1753;SDS011;58380;48.312;9.246;2022-10-17T17:33:53;5.70;;;1.17;;
1753;SDS011;58380;48.312;9.246;2022-10-17T17:36:21;3.42;;;1.10;;
1753;SDS011;58380;48.312;9.246;2022-10-17T17:38:55;6.28;;;1.13;;
1753;SDS011;58380;48.312;9.246;2022-10-17T17:41:23;9.40;;;1.50;;
1753;SDS011;58380;48.312;9.246;2022-10-17T17:46:15;4.38;;;1.10;;
1753;SDS011;58380;48.312;9.246;2022-10-17T17:48:44;4.97;;;1.23;;
1753;SDS011;58380;48.312;9.246;2022-10-17T17:51:12;8.38;;;1.30;;
1753;SDS011;58380;48.312;9.246;2022-10-17T17:53:40;5.78;;;2.35;;
1753;SDS011;58380;48.312;9.246;2022-10-17T17:56:07;14.75;;;5.90;;
1753;SDS011;58380;48.312;9.246;2022-10-17T17:58:39;9.80;;;1.63;;
1753;SDS011;58380;48.312;9.246;2022-10-17T18:01:10;3.88;;;1.30;;
1753;SDS011;58380;48.312;9.246;2022-10-17T18:03:46;7.18;;;1.35;;
1753;SDS011;58380;48.312;9.246;2022-10-17T18:06:14;7.70;;;1.00;;
1753;SDS011;58380;48.312;9.246;2022-10-17T18:11:15;3.03;;;1.08;;
1753;SDS011;58380;48.312;9.246;2022-10-17T18:13:41;7.68;;;1.27;;
1753;SDS011;58380;48.312;9.246;2022-10-17T18:16:06;2.10;;;1.20;;
1753;SDS011;58380;48.312;9.246;2022-10-17T18:18:41;11.93;;;1.30;;
1753;SDS011;58380;48.312;9.246;2022-10-17T18:21:09;5.82;;;1.70;;
1753;SDS011;58380;48.312;9.246;2022-10-17T18:23:37;9.05;;;1.50;;
1753;SDS011;58380;48.312;9.246;2022-10-17T18:26:04;4.40;;;1.10;;
1753;SDS011;58380;48.312;9.246;2022-10-17T18:31:05;8.90;;;2.55;;
1753;SDS011;58380;48.312;9.246;2022-10-17T18:33:45;6.68;;;1.75;;
1753;SDS011;58380;48.312;9.246;2022-10-17T18:36:12;7.38;;;2.13;;
1753;SDS011;58380;48.312;9.246;2022-10-17T18:38:39;9.07;;;1.90;;
1753;SDS011;58380;48.312;9.246;2022-10-17T18:41:07;9.30;;;2.40;;
1753;SDS011;58380;48.312;9.246;2022-10-17T18:43:40;3.53;;;1.42;;
1753;SDS011;58380;48.312;9.246;2022-10-17T18:46:08;10.25;;;2.45;;
1753;SDS011;58380;48.312;9.246;2022-10-17T18:48:40;10.05;;;2.33;;
1753;SDS011;58380;48.312;9.246;2022-10-17T18:51:08;9.88;;;2.60;;
1753;SDS011;58380;48.312;9.246;2022-10-17T18:56:04;3.80;;;1.63;;
1753;SDS011;58380;48.312;9.246;2022-10-17T18:58:30;4.15;;;1.73;;
1753;SDS011;58380;48.312;9.246;2022-10-17T19:01:00;7.70;;;1.30;;
1753;SDS011;58380;48.312;9.246;2022-10-17T19:03:31;8.55;;;2.05;;
1753;SDS011;58380;48.312;9.246;2022-10-17T19:06:01;7.18;;;1.40;;
1753;SDS011;58380;48.312;9.246;2022-10-17T19:08:31;7.80;;;1.85;;
1753;SDS011;58380;48.312;9.246;2022-10-17T19:10:56;4.53;;;1.40;;
1753;SDS011;58380;48.312;9.246;2022-10-17T19:13:22;2.70;;;1.43;;
1753;SDS011;58380;48.312;9.246;2022-10-17T19:15:47;8.20;;;1.80;;
1753;SDS011;58380;48.312;9.246;2022-10-17T19:18:13;7.00;;;1.75;;
1753;SDS011;58380;48.312;9.246;2022-10-17T19:20:38;11.57;;;2.03;;
1753;SDS011;58380;48.312;9.246;2022-10-17T19:23:03;5.07;;;1.47;;
1753;SDS011;58380;48.312;9.246;2022-10-17T19:25:29;10.63;;;1.70;;
1753;SDS011;58380;48.312;9.246;2022-10-17T19:27:55;8.40;;;1.80;;
1753;SDS011;58380;48.312;9.246;2022-10-17T19:30:21;4.25;;;1.65;;
1753;SDS011;58380;48.312;9.246;2022-10-17T19:32:47;6.35;;;1.60;;
1753;SDS011;58380;48.312;9.246;2022-10-17T19:35:13;11.33;;;2.17;;
1753;SDS011;58380;48.312;9.246;2022-10-17T19:37:38;8.93;;;1.60;;
1753;SDS011;58380;48.312;9.246;2022-10-17T19:40:04;8.55;;;1.42;;
1753;SDS011;58380;48.312;9.246;2022-10-17T19:42:31;7.57;;;1.88;;
1753;SDS011;58380;48.312;9.246;2022-10-17T19:44:57;9.10;;;1.67;;
1753;SDS011;58380;48.312;9.246;2022-10-17T19:47:22;6.80;;;2.17;;
1753;SDS011;58380;48.312;9.246;2022-10-17T19:49:48;7.82;;;1.95;;
1753;SDS011;58380;48.312;9.246;2022-10-17T19:52:13;12.83;;;2.10;;
1753;SDS011;58380;48.312;9.246;2022-10-17T19:54:39;9.50;;;2.07;;
1753;SDS011;58380;48.312;9.246;2022-10-17T19:57:04;5.80;;;2.03;;
1753;SDS011;58380;48.312;9.246;2022-10-17T19:59:31;13.15;;;2.03;;
1753;SDS011;58380;48.312;9.246;2022-10-17T20:01:57;5.88;;;1.60;;
1753;SDS011;58380;48.312;9.246;2022-10-17T20:04:22;12.63;;;1.80;;
1753;SDS011;58380;48.312;9.246;2022-10-17T20:06:48;9.88;;;1.70;;
1753;SDS011;58380;48.312;9.246;2022-10-17T20:09:14;5.30;;;1.83;;
1753;SDS011;58380;48.312;9.246;2022-10-17T20:11:40;5.80;;;1.98;;
1753;SDS011;58380;48.312;9.246;2022-10-17T20:14:05;6.33;;;2.03;;
1753;SDS011;58380;48.312;9.246;2022-10-17T20:16:31;7.63;;;2.20;;
1753;SDS011;58380;48.312;9.246;2022-10-17T20:19:04;7.20;;;2.40;;
1753;SDS011;58380;48.312;9.246;2022-10-17T20:21:33;7.22;;;2.00;;
1753;SDS011;58380;48.312;9.246;2022-10-17T20:24:01;6.85;;;2.13;;
1753;SDS011;58380;48.312;9.246;2022-10-17T20:26:30;5.65;;;1.85;;
1753;SDS011;58380;48.312;9.246;2022-10-17T20:28:56;8.27;;;2.90;;
1753;SDS011;58380;48.312;9.246;2022-10-17T20:31:26;8.18;;;2.13;;
1753;SDS011;58380;48.312;9.246;2022-10-17T20:33:55;11.27;;;2.55;;
1753;SDS011;58380;48.312;9.246;2022-10-17T20:36:22;9.30;;;2.15;;
1753;SDS011;58380;48.312;9.246;2022-10-17T20:38:52;2.85;;;1.60;;
1753;SDS011;58380;48.312;9.246;2022-10-17T20:41:23;5.95;;;2.15;;
1753;SDS011;58380;48.312;9.246;2022-10-17T20:43:50;11.50;;;2.22;;
1753;SDS011;58380;48.312;9.246;2022-10-17T20:46:18;7.00;;;2.08;;
1753;SDS011;58380;48.312;9.246;2022-10-17T20:48:49;8.93;;;2.80;;
1753;SDS011;58380;48.312;9.246;2022-10-17T20:51:16;6.07;;;2.65;;
1753;SDS011;58380;48.312;9.246;2022-10-17T20:53:42;14.85;;;3.88;;
1753;SDS011;58380;48.312;9.246;2022-10-17T20:56:08;7.60;;;3.93;;
1753;SDS011;58380;48.312;9.246;2022-10-17T20:58:42;10.38;;;4.20;;
1753;SDS011;58380;48.312;9.246;2022-10-17T21:01:08;10.47;;;4.20;;
1753;SDS011;58380;48.312;9.246;2022-10-17T21:03:35;6.70;;;2.65;;
1753;SDS011;58380;48.312;9.246;2022-10-17T21:06:02;6.95;;;2.58;;
1753;SDS011;58380;48.312;9.246;2022-10-17T21:08:29;6.78;;;2.45;;
1753;SDS011;58380;48.312;9.246;2022-10-17T21:11:04;8.43;;;3.05;;
1753;SDS011;58380;48.312;9.246;2022-10-17T21:13:56;6.40;;;2.50;;
1753;SDS011;58380;48.312;9.246;2022-10-17T21:16:26;11.98;;;2.85;;
1753;SDS011;58380;48.312;9.246;2022-10-17T21:18:53;9.70;;;2.72;;
1753;SDS011;58380;48.312;9.246;2022-10-17T21:21:21;8.60;;;2.60;;
1753;SDS011;58380;48.312;9.246;2022-10-17T21:23:51;9.32;;;2.70;;
